Time;durP1;ratioP1;P1;durP2;ratioP2;P2;SDS_P1;SDS_P2;PMS_P1;PMS_P2;Temp;Humidity;BMP_temperature;BMP_pressure;BME280_temperature;BME280_humidity;BME280_pressure;Samples;Min_cycle;Max_cycle;Signal;HPM_P1;HPM_P2
2022/12/03 00:01:29;;;;;;;;;;;-0.50;99.90;;;;;;2603562;54;20409;31
2022/12/03 00:04:03;;;;;;;;;;;-0.40;99.90;;;;;;2603405;54;19946;31
2022/12/03 00:06:37;;;;;;;;;;;-0.50;99.90;;;;;;2603714;54;20783;31
2022/12/03 00:09:12;;;;;;;;;;;-0.50;99.90;;;;;;2603500;54;20017;31
2022/12/03 00:11:46;;;;;;;;;;;-0.50;99.90;;;;;;2702050;39;20388;31
2022/12/03 00:14:20;;;;;;;;;;;-0.40;99.90;;;;;;2609098;46;20795;31
2022/12/03 00:16:55;;;;;;;;;;;-0.40;99.90;;;;;;2603340;54;20737;31
2022/12/03 00:19:28;;;;;;;;;;;-0.40;99.90;;;;;;2702906;39;20382;31
2022/12/03 00:22:02;;;;;;;;;;;-0.40;99.90;;;;;;2603517;54;20716;31
2022/12/03 00:24:40;;;;;;;;;;;-0.40;99.90;;;;;;2603568;54;19941;31
2022/12/03 00:27:12;;;;;;;;;;;-0.40;99.90;;;;;;2603440;54;19957;31
2022/12/03 00:29:46;;;;;;;;;;;-0.40;99.90;;;;;;2702123;39;20354;31
2022/12/03 00:32:21;;;;;;;;;;;-0.40;99.90;;;;;;2603037;54;20771;31
2022/12/03 00:34:58;;;;;;;;;;;-0.40;99.90;;;;;;2603454;54;20781;31
2022/12/03 00:37:33;;;;;;;;;;;-0.40;99.90;;;;;;2702930;39;20386;31
2022/12/03 00:40:13;;;;;;;;;;;-0.40;99.90;;;;;;2603348;54;20768;31
2022/12/03 00:42:47;;;;;;;;;;;-0.40;99.90;;;;;;2603466;54;20757;31
2022/12/03 00:45:21;;;;;;;;;;;-0.50;99.90;;;;;;2603554;54;19961;31
2022/12/03 00:47:55;;;;;;;;;;;-0.40;99.90;;;;;;2622428;46;20759;31
2022/12/03 00:50:29;;;;;;;;;;;-0.40;99.90;;;;;;2604486;46;19947;31
2022/12/03 00:53:03;;;;;;;;;;;-0.40;99.90;;;;;;2603205;54;20569;31
2022/12/03 00:55:40;;;;;;;;;;;-0.40;99.90;;;;;;2606909;46;19934;31
2022/12/03 00:58:14;;;;;;;;;;;-0.40;99.90;;;;;;2603514;54;19938;31
2022/12/03 01:00:48;;;;;;;;;;;-0.40;99.90;;;;;;2603213;54;20791;31
2022/12/03 01:03:24;;;;;;;;;;;-0.40;99.90;;;;;;2720491;39;20363;31
2022/12/03 01:05:58;;;;;;;;;;;-0.40;99.90;;;;;;2604262;46;19934;31
2022/12/03 01:08:31;;;;;;;;;;;-0.40;99.90;;;;;;2604741;46;19935;31
2022/12/03 01:11:36;;;;;;;;;;;-0.40;99.90;;;;;;2621606;46;19934;31
2022/12/03 01:14:03;;;;;;;;;;;-0.40;99.90;;;;;;2603100;54;19941;31
2022/12/03 01:16:37;;;;;;;;;;;-0.30;99.90;;;;;;2604234;47;20006;31
2022/12/03 01:19:14;;;;;;;;;;;-0.10;99.90;;;;;;2603424;54;19961;31
2022/12/03 01:21:49;;;;;;;;;;;-0.40;99.90;;;;;;2621727;46;19946;31
2022/12/03 01:24:23;;;;;;;;;;;-0.40;99.90;;;;;;2603384;54;19957;31
2022/12/03 01:27:02;;;;;;;;;;;-0.40;99.90;;;;;;2604285;46;20438;31
2022/12/03 01:29:37;;;;;;;;;;;-0.30;99.90;;;;;;2604260;47;20767;31
2022/12/03 01:32:18;;;;;;;;;;;-0.30;99.90;;;;;;2603180;54;20705;31
2022/12/03 01:34:53;;;;;;;;;;;-0.30;99.90;;;;;;2604157;47;19935;31
2022/12/03 01:37:30;;;;;;;;;;;-0.30;99.90;;;;;;2604348;47;19934;31
2022/12/03 01:40:02;;;;;;;;;;;-0.40;99.90;;;;;;2603151;54;19934;31
2022/12/03 01:42:40;;;;;;;;;;;-0.40;99.90;;;;;;2603237;54;20737;31
2022/12/03 01:45:19;;;;;;;;;;;-0.40;99.90;;;;;;2608662;47;19934;31
2022/12/03 01:47:53;;;;;;;;;;;-0.40;99.90;;;;;;2603311;54;19934;31
2022/12/03 01:50:28;;;;;;;;;;;-0.40;99.90;;;;;;2603070;54;20701;31
2022/12/03 01:53:01;;;;;;;;;;;-0.40;99.90;;;;;;2608431;47;20731;31
2022/12/03 01:55:35;;;;;;;;;;;-0.40;99.90;;;;;;2603476;54;19934;31
2022/12/03 01:58:13;;;;;;;;;;;-0.40;99.90;;;;;;2603037;54;20733;31
2022/12/03 02:00:47;;;;;;;;;;;-0.40;99.90;;;;;;2603337;54;19944;31
2022/12/03 02:03:22;;;;;;;;;;;-0.40;99.90;;;;;;2603072;54;19935;31
2022/12/03 02:05:56;;;;;;;;;;;-0.40;99.90;;;;;;2603194;54;20738;31
2022/12/03 02:08:31;;;;;;;;;;;-0.50;99.90;;;;;;2603415;54;20757;31
2022/12/03 02:11:04;;;;;;;;;;;-0.40;99.90;;;;;;2604288;47;20782;31
2022/12/03 02:13:40;;;;;;;;;;;-0.40;99.90;;;;;;2603376;54;19939;31
2022/12/03 02:16:14;;;;;;;;;;;-0.40;99.90;;;;;;2602213;54;19942;31
2022/12/03 02:18:46;;;;;;;;;;;-0.40;99.90;;;;;;2603408;54;20722;31
2022/12/03 02:21:22;;;;;;;;;;;-0.40;99.90;;;;;;2603700;54;20723;31
2022/12/03 02:23:59;;;;;;;;;;;-0.40;99.90;;;;;;2604053;54;19935;31
2022/12/03 02:26:36;;;;;;;;;;;-0.40;99.90;;;;;;2603947;54;19934;31
2022/12/03 02:29:10;;;;;;;;;;;-0.40;99.90;;;;;;2613849;46;19941;31
2022/12/03 02:31:44;;;;;;;;;;;-0.40;99.90;;;;;;2604595;46;19934;31
2022/12/03 02:34:33;;;;;;;;;;;-0.40;99.90;;;;;;2603653;54;20033;31
2022/12/03 02:37:07;;;;;;;;;;;-0.40;99.90;;;;;;2604175;54;20766;31
2022/12/03 02:39:41;;;;;;;;;;;-0.40;99.90;;;;;;2702559;39;20362;31
2022/12/03 02:45:05;;;;;;;;;;;-0.40;99.90;;;;;;2604006;54;19942;31
2022/12/03 02:47:40;;;;;;;;;;;-0.30;99.90;;;;;;2604084;54;19935;31
2022/12/03 02:50:16;;;;;;;;;;;-0.40;99.90;;;;;;2603991;54;20837;31
2022/12/03 02:52:50;;;;;;;;;;;-0.40;99.90;;;;;;2702341;39;21300;31
2022/12/03 02:55:25;;;;;;;;;;;-0.40;99.90;;;;;;2604115;54;20731;31
2022/12/03 02:58:07;;;;;;;;;;;-0.40;99.90;;;;;;2604545;46;20065;31
2022/12/03 03:00:41;;;;;;;;;;;-0.40;99.90;;;;;;2609238;46;20706;31
2022/12/03 03:03:16;;;;;;;;;;;-0.40;99.90;;;;;;2603659;54;20013;31
2022/12/03 03:05:53;;;;;;;;;;;-0.40;99.90;;;;;;2603907;54;20780;31
2022/12/03 03:08:25;;;;;;;;;;;-0.40;99.90;;;;;;2603896;54;20754;31
2022/12/03 03:10:59;;;;;;;;;;;-0.40;99.90;;;;;;2604588;46;19935;31
2022/12/03 03:13:36;;;;;;;;;;;-0.40;99.90;;;;;;2603478;54;19981;31
2022/12/03 03:16:10;;;;;;;;;;;-0.40;99.90;;;;;;2603879;54;20011;31
2022/12/03 03:18:45;;;;;;;;;;;-0.40;99.90;;;;;;2603867;54;19934;31
2022/12/03 03:21:17;;;;;;;;;;;-0.40;99.90;;;;;;2603786;54;19934;31
2022/12/03 03:23:51;;;;;;;;;;;-0.40;99.90;;;;;;2603810;54;20827;31
2022/12/03 03:26:25;;;;;;;;;;;-0.40;99.90;;;;;;2603895;54;19934;31
2022/12/03 03:29:02;;;;;;;;;;;-0.40;99.90;;;;;;2603447;54;19942;31
2022/12/03 03:31:35;;;;;;;;;;;-0.40;99.90;;;;;;2603649;54;19947;31
2022/12/03 03:34:11;;;;;;;;;;;-0.40;99.90;;;;;;2701874;39;21356;31
2022/12/03 03:36:45;;;;;;;;;;;-0.40;99.90;;;;;;2603591;54;20782;31
2022/12/03 03:39:19;;;;;;;;;;;-0.40;99.90;;;;;;2603538;54;20800;31
2022/12/03 03:41:53;;;;;;;;;;;-0.30;99.90;;;;;;2603641;54;19935;31
2022/12/03 03:44:29;;;;;;;;;;;-0.40;99.90;;;;;;2622313;46;20780;31
2022/12/03 03:47:03;;;;;;;;;;;-0.40;99.90;;;;;;2603902;54;20889;31
2022/12/03 03:49:38;;;;;;;;;;;-0.40;99.90;;;;;;2603526;54;20697;31
2022/12/03 03:52:12;;;;;;;;;;;-0.40;99.90;;;;;;2603629;54;20034;31
2022/12/03 03:54:46;;;;;;;;;;;-0.40;99.90;;;;;;2603697;54;19938;31
2022/12/03 03:57:23;;;;;;;;;;;-0.40;99.90;;;;;;2609145;46;19935;31
2022/12/03 04:00:00;;;;;;;;;;;-0.30;99.90;;;;;;2604399;46;20453;31
2022/12/03 04:02:38;;;;;;;;;;;-0.30;99.90;;;;;;2603715;54;20756;31
2022/12/03 04:05:13;;;;;;;;;;;-0.30;99.90;;;;;;2603407;54;20819;31
2022/12/03 04:07:48;;;;;;;;;;;-0.30;99.90;;;;;;2622175;46;19939;31
2022/12/03 04:13:08;;;;;;;;;;;-0.30;99.90;;;;;;2622091;46;19998;31
2022/12/03 04:15:45;;;;;;;;;;;-0.30;99.90;;;;;;2604544;46;19941;31
2022/12/03 04:23:48;;;;;;;;;;;-0.30;99.90;;;;;;2603317;54;20742;31
2022/12/03 04:29:08;;;;;;;;;;;-0.30;99.90;;;;;;2603387;54;19935;31
2022/12/03 04:37:26;;;;;;;;;;;-0.30;99.90;;;;;;2603406;54;19946;31
2022/12/03 04:40:01;;;;;;;;;;;-0.30;99.90;;;;;;2603790;54;20734;31
2022/12/03 04:42:35;;;;;;;;;;;-0.30;99.90;;;;;;2603131;54;20840;31
2022/12/03 04:45:10;;;;;;;;;;;-0.30;99.90;;;;;;2603394;54;20777;31
2022/12/03 04:47:47;;;;;;;;;;;-0.30;99.90;;;;;;2603481;54;20028;31
2022/12/03 04:50:21;;;;;;;;;;;-0.30;99.90;;;;;;2603281;54;21422;31
2022/12/03 04:52:55;;;;;;;;;;;-0.30;99.90;;;;;;2603799;46;20826;31
2022/12/03 04:55:29;;;;;;;;;;;-0.30;99.90;;;;;;2603265;54;21430;31
2022/12/03 04:58:03;;;;;;;;;;;-0.30;99.90;;;;;;2604346;46;19934;31
2022/12/03 05:00:37;;;;;;;;;;;-0.30;99.90;;;;;;2603392;54;19934;31
2022/12/03 05:03:16;;;;;;;;;;;-0.30;99.90;;;;;;2604222;46;19942;31
2022/12/03 05:05:50;;;;;;;;;;;-0.30;99.90;;;;;;2603317;54;20753;31
2022/12/03 05:08:24;;;;;;;;;;;-0.30;99.90;;;;;;2604352;46;19941;31
2022/12/03 05:11:02;;;;;;;;;;;-0.30;99.90;;;;;;2604155;46;19934;31
2022/12/03 05:13:36;;;;;;;;;;;-0.30;99.90;;;;;;2701742;39;21335;31
2022/12/03 05:16:11;;;;;;;;;;;-0.20;99.90;;;;;;2603140;54;20762;31
2022/12/03 05:18:47;;;;;;;;;;;-0.20;99.90;;;;;;2603116;54;20045;31
2022/12/03 05:21:18;;;;;;;;;;;-0.30;99.90;;;;;;2603419;54;20770;31
2022/12/03 05:23:52;;;;;;;;;;;-0.30;99.90;;;;;;2603414;54;19946;31
2022/12/03 05:26:25;;;;;;;;;;;-0.30;99.90;;;;;;2604535;47;19934;31
2022/12/03 05:28:59;;;;;;;;;;;-0.20;99.90;;;;;;2706153;39;21380;31
2022/12/03 05:31:33;;;;;;;;;;;-0.20;99.90;;;;;;2604198;47;19961;31
2022/12/03 05:34:10;;;;;;;;;;;-0.20;99.90;;;;;;2604154;47;19941;31
2022/12/03 05:36:43;;;;;;;;;;;-0.20;99.90;;;;;;2703079;39;20350;31
2022/12/03 05:39:17;;;;;;;;;;;-0.20;99.90;;;;;;2603333;54;20731;31
2022/12/03 05:44:39;;;;;;;;;;;-0.20;99.90;;;;;;2604010;47;19942;31
2022/12/03 05:47:14;;;;;;;;;;;-0.20;99.90;;;;;;2604278;47;20764;31
2022/12/03 05:49:51;;;;;;;;;;;-0.10;99.90;;;;;;2603303;54;20428;31
2022/12/03 05:52:25;;;;;;;;;;;-0.10;99.90;;;;;;2603134;54;20750;31
2022/12/03 05:55:00;;;;;;;;;;;-0.10;99.90;;;;;;2603823;54;20789;31
2022/12/03 05:57:34;;;;;;;;;;;-0.10;99.90;;;;;;2721426;39;20450;31
2022/12/03 06:00:09;;;;;;;;;;;-0.10;99.90;;;;;;2603966;54;20474;31
2022/12/03 06:02:44;;;;;;;;;;;-0.10;99.90;;;;;;2604063;54;19935;31
2022/12/03 06:05:21;;;;;;;;;;;-0.10;99.90;;;;;;2603267;54;19941;31
2022/12/03 06:07:55;;;;;;;;;;;-0.10;99.90;;;;;;2604092;54;20468;31
2022/12/03 06:10:29;;;;;;;;;;;-0.10;99.90;;;;;;2603837;54;20771;31
2022/12/03 06:13:03;;;;;;;;;;;-0.10;99.90;;;;;;2622618;46;20442;31
2022/12/03 06:15:36;;;;;;;;;;;-0.10;99.90;;;;;;2622335;46;19935;31
2022/12/03 06:18:16;;;;;;;;;;;-0.10;99.90;;;;;;2702621;39;20560;31
2022/12/03 06:20:54;;;;;;;;;;;-0.10;99.90;;;;;;2609574;46;20455;31
2022/12/03 06:23:28;;;;;;;;;;;-0.10;99.90;;;;;;2603989;54;20504;31
2022/12/03 06:26:02;;;;;;;;;;;-0.10;99.90;;;;;;2603999;54;19969;31
2022/12/03 06:28:36;;;;;;;;;;;-0.10;99.90;;;;;;2603845;54;20778;31
2022/12/03 06:31:10;;;;;;;;;;;-0.10;99.90;;;;;;2605714;54;19930;31
2022/12/03 06:33:45;;;;;;;;;;;-0.10;99.90;;;;;;2622440;46;19950;31
2022/12/03 06:36:23;;;;;;;;;;;-0.10;99.90;;;;;;2605047;46;20771;31
2022/12/03 06:38:59;;;;;;;;;;;-0.10;99.90;;;;;;2603701;54;20793;31
2022/12/03 06:41:31;;;;;;;;;;;-0.10;99.90;;;;;;2604745;46;19941;31
2022/12/03 06:44:06;;;;;;;;;;;-0.10;99.90;;;;;;2605022;46;20793;31
2022/12/03 06:46:40;;;;;;;;;;;0.00;99.90;;;;;;2618253;46;19961;31
2022/12/03 06:49:15;;;;;;;;;;;0.00;99.90;;;;;;2603558;54;20022;31
2022/12/03 06:51:52;;;;;;;;;;;0.00;99.90;;;;;;2604025;54;20794;31
2022/12/03 06:54:26;;;;;;;;;;;0.00;99.90;;;;;;2622439;46;19941;31
2022/12/03 06:56:59;;;;;;;;;;;1.00;99.90;;;;;;2603918;54;19941;31
2022/12/03 06:59:36;;;;;;;;;;;0.00;99.90;;;;;;2604854;46;19942;31
2022/12/03 07:02:06;;;;;;;;;;;0.00;99.90;;;;;;2626061;46;19935;31
2022/12/03 07:04:40;;;;;;;;;;;-0.10;99.90;;;;;;2603810;54;19934;31
2022/12/03 07:07:20;;;;;;;;;;;0.00;99.90;;;;;;2606413;54;19982;31
2022/12/03 07:09:54;;;;;;;;;;;0.00;99.90;;;;;;2603661;54;20001;31
2022/12/03 07:12:28;;;;;;;;;;;0.00;99.90;;;;;;2607580;54;20895;31
2022/12/03 07:15:03;;;;;;;;;;;0.00;99.90;;;;;;2605531;54;21534;31
2022/12/03 07:17:35;;;;;;;;;;;0.00;99.90;;;;;;2610855;54;20936;31
2022/12/03 07:20:09;;;;;;;;;;;0.00;99.90;;;;;;2611481;46;19937;31
2022/12/03 07:22:47;;;;;;;;;;;0.00;99.90;;;;;;2611141;54;19959;31
2022/12/03 07:25:21;;;;;;;;;;;0.00;99.90;;;;;;2609651;54;19935;31
2022/12/03 07:27:56;;;;;;;;;;;-0.10;99.90;;;;;;2612111;54;19938;31
2022/12/03 07:30:28;;;;;;;;;;;0.00;99.90;;;;;;2611630;54;19930;31
2022/12/03 07:33:00;;;;;;;;;;;0.00;99.90;;;;;;2612451;54;19946;31
2022/12/03 07:35:31;;;;;;;;;;;0.00;99.90;;;;;;2632655;46;19923;-77
2022/12/03 07:40:37;;;;;;;;;;;0.00;99.90;;;;;;2610941;54;19960;31
2022/12/03 07:43:11;;;;;;;;;;;0.00;99.90;;;;;;2608837;54;20018;31
2022/12/03 07:45:44;;;;;;;;;;;0.00;99.90;;;;;;2613427;54;19937;31
2022/12/03 07:48:18;;;;;;;;;;;0.00;99.90;;;;;;2611784;54;20848;31
2022/12/03 07:50:50;;;;;;;;;;;0.00;99.90;;;;;;2604264;54;19931;31
2022/12/03 07:53:22;;;;;;;;;;;0.10;99.90;;;;;;2603246;54;19930;31
2022/12/03 07:55:57;;;;;;;;;;;0.10;99.90;;;;;;2605376;54;19931;31
2022/12/03 07:58:29;;;;;;;;;;;0.20;99.90;;;;;;2603544;54;19941;31
2022/12/03 08:01:01;;;;;;;;;;;0.40;99.90;;;;;;2611319;54;19938;31
2022/12/03 08:03:33;;;;;;;;;;;0.40;99.90;;;;;;2603901;54;20371;31
2022/12/03 08:06:05;;;;;;;;;;;0.40;99.90;;;;;;2606895;54;20715;31
2022/12/03 08:08:50;;;;;;;;;;;0.40;99.90;;;;;;2612804;54;19934;31
2022/12/03 08:11:24;;;;;;;;;;;0.50;99.90;;;;;;2602802;54;20828;31
2022/12/03 08:13:58;;;;;;;;;;;0.40;99.90;;;;;;2603730;54;19935;31
2022/12/03 08:16:32;;;;;;;;;;;1.50;99.90;;;;;;2603295;54;20770;31
2022/12/03 08:19:06;;;;;;;;;;;0.40;99.90;;;;;;2603487;54;20441;31
2022/12/03 08:21:40;;;;;;;;;;;0.40;99.90;;;;;;2603678;54;19935;31
2022/12/03 08:24:15;;;;;;;;;;;0.40;99.90;;;;;;2604688;46;20752;31
2022/12/03 08:26:52;;;;;;;;;;;0.40;99.90;;;;;;2621996;46;19941;31
2022/12/03 08:29:26;;;;;;;;;;;0.40;99.90;;;;;;2603807;54;19934;31
2022/12/03 08:32:00;;;;;;;;;;;0.40;99.90;;;;;;2702170;39;20385;31
2022/12/03 08:34:35;;;;;;;;;;;0.40;99.90;;;;;;2603548;54;19934;31
2022/12/03 08:37:21;;;;;;;;;;;0.40;99.90;;;;;;2616114;39;20375;31
2022/12/03 08:39:56;;;;;;;;;;;0.40;99.90;;;;;;2604307;46;20866;31
2022/12/03 08:42:45;;;;;;;;;;;0.40;99.90;;;;;;2603403;54;20794;31
2022/12/03 08:45:38;;;;;;;;;;;0.40;99.90;;;;;;2603750;54;19954;31
2022/12/03 08:51:46;;;;;;;;;;;0.50;99.90;;;;;;2603621;54;19961;31
2022/12/03 08:54:20;;;;;;;;;;;0.50;99.90;;;;;;2701849;39;20477;31
2022/12/03 08:56:54;;;;;;;;;;;0.50;99.90;;;;;;2603647;54;19935;31
2022/12/03 08:59:31;;;;;;;;;;;0.50;99.90;;;;;;2603481;54;21051;31
2022/12/03 09:05:25;;;;;;;;;;;0.50;99.90;;;;;;2603630;54;19941;31
2022/12/03 09:07:59;;;;;;;;;;;0.50;99.90;;;;;;2603661;54;20057;31
2022/12/03 09:10:32;;;;;;;;;;;0.50;99.90;;;;;;2603490;54;19935;31
2022/12/03 09:13:09;;;;;;;;;;;0.60;99.90;;;;;;2603484;54;19981;31
2022/12/03 09:15:46;;;;;;;;;;;0.60;99.90;;;;;;2603611;54;20769;31
2022/12/03 09:18:20;;;;;;;;;;;0.60;99.90;;;;;;2603236;54;19985;31
2022/12/03 09:20:55;;;;;;;;;;;0.60;99.90;;;;;;2603714;46;19934;31
2022/12/03 09:23:29;;;;;;;;;;;0.60;99.90;;;;;;2603721;54;20041;31
2022/12/03 09:26:04;;;;;;;;;;;0.70;99.90;;;;;;2603420;54;19957;31
2022/12/03 09:28:38;;;;;;;;;;;0.70;99.90;;;;;;2604282;46;19939;31
2022/12/03 09:31:15;;;;;;;;;;;0.70;99.90;;;;;;2603259;54;19934;31
2022/12/03 09:33:49;;;;;;;;;;;0.70;99.90;;;;;;2701856;39;20417;31
2022/12/03 09:36:23;;;;;;;;;;;0.80;99.90;;;;;;2608746;47;19989;31
2022/12/03 09:38:57;;;;;;;;;;;0.80;99.90;;;;;;2622019;47;20741;31
2022/12/03 09:41:29;;;;;;;;;;;0.90;99.90;;;;;;2614261;31;21151;31
2022/12/03 09:44:03;;;;;;;;;;;0.90;99.90;;;;;;2621910;47;20808;31
2022/12/03 09:46:43;;;;;;;;;;;0.90;99.90;;;;;;2715398;39;21293;31
2022/12/03 09:49:15;;;;;;;;;;;0.90;99.90;;;;;;2604560;47;19941;31
2022/12/03 09:51:50;;;;;;;;;;;0.90;99.90;;;;;;2701882;39;20347;31
2022/12/03 09:54:25;;;;;;;;;;;1.00;99.90;;;;;;2612981;47;20741;31
2022/12/03 09:57:02;;;;;;;;;;;1.00;99.90;;;;;;2603491;54;19935;31
2022/12/03 09:59:39;;;;;;;;;;;1.00;99.90;;;;;;2783206;31;20495;31
2022/12/03 10:02:18;;;;;;;;;;;1.00;99.90;;;;;;2603127;54;20893;31
2022/12/03 10:04:53;;;;;;;;;;;1.00;99.90;;;;;;2603332;54;20580;31
2022/12/03 10:07:28;;;;;;;;;;;1.00;99.90;;;;;;2603346;54;20645;31
2022/12/03 10:10:02;;;;;;;;;;;1.00;99.90;;;;;;2603170;54;19943;31
2022/12/03 10:12:39;;;;;;;;;;;1.00;99.90;;;;;;2602773;54;20715;31
2022/12/03 10:15:14;;;;;;;;;;;1.00;99.90;;;;;;2603157;54;19935;31
2022/12/03 10:17:49;;;;;;;;;;;1.00;99.90;;;;;;2603158;54;20736;31
2022/12/03 10:20:25;;;;;;;;;;;1.00;99.90;;;;;;2782966;31;20421;31
2022/12/03 10:22:59;;;;;;;;;;;1.00;99.90;;;;;;2603236;54;20433;31
2022/12/03 10:25:34;;;;;;;;;;;1.10;99.90;;;;;;2773135;31;20382;31
2022/12/03 10:28:10;;;;;;;;;;;1.10;99.90;;;;;;2602556;54;19962;31
2022/12/03 10:30:45;;;;;;;;;;;1.10;99.90;;;;;;2603011;54;20747;31
2022/12/03 10:33:43;;;;;;;;;;;1.10;99.90;;;;;;2603183;54;19977;31
2022/12/03 10:36:22;;;;;;;;;;;1.10;99.90;;;;;;2602986;54;19934;31
2022/12/03 10:39:11;;;;;;;;;;;1.10;99.90;;;;;;2603399;54;19946;31
2022/12/03 10:41:45;;;;;;;;;;;1.20;99.90;;;;;;2603931;54;21302;31
2022/12/03 10:44:20;;;;;;;;;;;1.10;99.90;;;;;;2603830;54;20734;31
2022/12/03 10:47:06;;;;;;;;;;;1.10;99.90;;;;;;2604155;54;19934;31
2022/12/03 10:49:42;;;;;;;;;;;1.20;99.90;;;;;;2603810;54;20006;31
2022/12/03 10:52:18;;;;;;;;;;;1.20;99.90;;;;;;2703555;39;20388;31
2022/12/03 10:55:01;;;;;;;;;;;1.20;99.90;;;;;;2604740;46;19941;31
2022/12/03 10:57:35;;;;;;;;;;;1.30;99.90;;;;;;2603790;54;20692;31
2022/12/03 11:00:20;;;;;;;;;;;1.30;99.90;;;;;;2603839;54;20845;31
2022/12/03 11:02:54;;;;;;;;;;;1.30;99.90;;;;;;2604912;46;19969;31
2022/12/03 11:05:33;;;;;;;;;;;1.40;99.90;;;;;;2721222;39;20484;31
2022/12/03 11:08:19;;;;;;;;;;;1.30;99.90;;;;;;2603921;54;19956;31
2022/12/03 11:13:55;;;;;;;;;;;1.30;99.90;;;;;;2622179;46;20806;31
2022/12/03 11:16:44;;;;;;;;;;;1.30;99.90;;;;;;2603746;54;19934;31
2022/12/03 11:19:19;;;;;;;;;;;1.30;99.90;;;;;;2603809;54;20785;31
2022/12/03 11:22:08;;;;;;;;;;;1.30;99.90;;;;;;2603881;54;19935;31
2022/12/03 11:24:53;;;;;;;;;;;1.30;99.90;;;;;;2622448;46;20842;31
2022/12/03 11:27:26;;;;;;;;;;;1.40;99.90;;;;;;2604130;54;19954;31
2022/12/03 11:30:01;;;;;;;;;;;1.40;99.90;;;;;;2773963;31;20511;31
2022/12/03 11:32:50;;;;;;;;;;;1.40;99.90;;;;;;2603728;54;19973;31
2022/12/03 11:36:04;;;;;;;;;;;1.40;99.90;;;;;;2603922;54;19949;31
2022/12/03 11:38:46;;;;;;;;;;;1.40;99.90;;;;;;2603781;54;19935;31
2022/12/03 11:41:38;;;;;;;;;;;1.50;99.90;;;;;;2603422;54;20712;31
2022/12/03 11:44:46;;;;;;;;;;;1.50;99.90;;;;;;2603918;54;20027;31
2022/12/03 11:47:35;;;;;;;;;;;1.40;99.90;;;;;;2603355;54;20776;31
2022/12/03 11:50:14;;;;;;;;;;;1.50;99.90;;;;;;2603855;54;19934;31
2022/12/03 11:52:51;;;;;;;;;;;1.50;99.90;;;;;;2603603;54;20041;31
2022/12/03 11:55:30;;;;;;;;;;;1.60;99.90;;;;;;2603499;54;19942;31
2022/12/03 11:58:14;;;;;;;;;;;1.80;99.90;;;;;;2603494;54;19935;31
2022/12/03 12:00:52;;;;;;;;;;;1.80;99.90;;;;;;2622247;46;19946;31
2022/12/03 12:03:29;;;;;;;;;;;1.80;99.90;;;;;;2603626;54;19942;31
2022/12/03 12:06:09;;;;;;;;;;;1.80;99.90;;;;;;2603533;54;20001;31
2022/12/03 12:08:44;;;;;;;;;;;1.80;99.90;;;;;;2603761;54;19941;31
2022/12/03 12:11:19;;;;;;;;;;;2.70;99.90;;;;;;2603602;54;20062;31
2022/12/03 12:13:57;;;;;;;;;;;1.80;99.90;;;;;;2603556;54;20762;31
2022/12/03 12:16:48;;;;;;;;;;;1.80;99.90;;;;;;2603590;54;20756;31
2022/12/03 12:19:39;;;;;;;;;;;1.80;99.90;;;;;;2622289;46;20749;31
2022/12/03 12:22:45;;;;;;;;;;;1.80;99.90;;;;;;2603639;54;20748;31
2022/12/03 12:25:40;;;;;;;;;;;1.80;99.90;;;;;;2622080;46;20742;31
2022/12/03 12:28:16;;;;;;;;;;;1.80;99.90;;;;;;2603733;54;20868;31
2022/12/03 12:31:15;;;;;;;;;;;1.70;99.90;;;;;;2603876;54;19941;31
2022/12/03 12:33:55;;;;;;;;;;;1.80;99.90;;;;;;2622016;46;19934;31
2022/12/03 12:37:01;;;;;;;;;;;1.80;99.90;;;;;;2603698;54;19978;31
2022/12/03 12:39:37;;;;;;;;;;;1.90;99.90;;;;;;2603547;54;20786;31
2022/12/03 12:42:23;;;;;;;;;;;1.90;99.90;;;;;;2603367;54;20392;31
2022/12/03 12:44:59;;;;;;;;;;;1.90;99.90;;;;;;2603345;54;20706;31
2022/12/03 12:47:49;;;;;;;;;;;1.90;99.90;;;;;;2603334;54;19934;31
2022/12/03 12:50:23;;;;;;;;;;;2.00;99.90;;;;;;2603380;54;19941;31
2022/12/03 12:52:57;;;;;;;;;;;2.00;99.90;;;;;;2603382;54;20468;31
2022/12/03 12:55:33;;;;;;;;;;;2.00;99.90;;;;;;2603424;54;19935;31
2022/12/03 12:58:09;;;;;;;;;;;2.00;99.90;;;;;;2603368;54;20879;31
2022/12/03 13:03:44;;;;;;;;;;;2.00;99.90;;;;;;2603158;54;20802;31
2022/12/03 13:06:21;;;;;;;;;;;2.00;99.90;;;;;;2603557;54;19963;31
2022/12/03 13:08:56;;;;;;;;;;;2.00;99.90;;;;;;2603511;54;20766;31
2022/12/03 13:11:38;;;;;;;;;;;2.00;99.90;;;;;;2603366;54;20743;31
2022/12/03 13:17:14;;;;;;;;;;;2.00;99.90;;;;;;2621864;46;20478;31
2022/12/03 13:26:22;;;;;;;;;;;2.00;99.90;;;;;;2665394;39;20791;31
2022/12/03 13:29:14;;;;;;;;;;;2.10;99.90;;;;;;2603325;54;20779;31
2022/12/03 13:31:50;;;;;;;;;;;2.10;99.90;;;;;;2603339;54;20318;31
2022/12/03 13:34:27;;;;;;;;;;;2.10;99.90;;;;;;2603389;54;19934;31
2022/12/03 13:37:01;;;;;;;;;;;2.10;99.90;;;;;;2669933;39;20227;31
2022/12/03 13:39:39;;;;;;;;;;;2.10;99.90;;;;;;2603352;54;20349;31
2022/12/03 13:45:03;;;;;;;;;;;2.10;99.90;;;;;;2603184;54;20719;31
2022/12/03 13:50:39;;;;;;;;;;;2.10;99.90;;;;;;2603471;54;20030;31
2022/12/03 13:53:25;;;;;;;;;;;2.10;99.90;;;;;;2621657;47;19935;31
2022/12/03 13:56:05;;;;;;;;;;;2.10;99.90;;;;;;2617472;47;19935;31
2022/12/03 13:58:41;;;;;;;;;;;2.10;99.90;;;;;;2665815;31;20369;31
2022/12/03 14:01:15;;;;;;;;;;;2.50;99.90;;;;;;2621269;47;20769;31
2022/12/03 14:03:48;;;;;;;;;;;2.10;99.90;;;;;;2603050;54;20021;31
2022/12/03 14:06:23;;;;;;;;;;;2.10;99.90;;;;;;2603366;54;20327;31
2022/12/03 14:08:58;;;;;;;;;;;2.10;99.90;;;;;;2603082;54;20715;31
2022/12/03 14:14:20;;;;;;;;;;;2.10;99.90;;;;;;2680377;39;20294;31
2022/12/03 14:17:08;;;;;;;;;;;2.40;99.90;;;;;;2603715;54;20334;31
2022/12/03 14:19:45;;;;;;;;;;;2.50;99.90;;;;;;2603768;54;19935;31
2022/12/03 14:22:22;;;;;;;;;;;2.50;99.90;;;;;;2702741;39;20223;31
2022/12/03 14:24:56;;;;;;;;;;;3.10;99.90;;;;;;2604030;54;19941;31
2022/12/03 14:27:43;;;;;;;;;;;2.70;99.90;;;;;;2610852;46;20753;31
2022/12/03 14:30:18;;;;;;;;;;;2.70;99.90;;;;;;2622337;46;19935;31
2022/12/03 14:33:01;;;;;;;;;;;2.60;99.90;;;;;;2604078;54;20308;31
2022/12/03 14:35:32;;;;;;;;;;;2.50;99.90;;;;;;2603865;54;20807;31
2022/12/03 14:38:06;;;;;;;;;;;3.50;99.90;;;;;;2603756;54;20771;31
2022/12/03 14:40:41;;;;;;;;;;;2.40;99.90;;;;;;2604089;54;19950;31
2022/12/03 14:46:22;;;;;;;;;;;2.30;99.90;;;;;;2604033;54;19946;31
2022/12/03 14:49:04;;;;;;;;;;;2.20;99.90;;;;;;2603480;54;20863;31
2022/12/03 14:51:40;;;;;;;;;;;2.20;99.90;;;;;;2622237;46;20018;31
2022/12/03 14:54:30;;;;;;;;;;;2.10;99.90;;;;;;2603744;54;20038;31
2022/12/03 14:57:10;;;;;;;;;;;2.10;99.90;;;;;;2605767;46;20720;31
2022/12/03 14:59:54;;;;;;;;;;;2.00;99.90;;;;;;2720784;39;20278;31
2022/12/03 15:02:43;;;;;;;;;;;2.00;99.90;;;;;;2603610;54;19935;31
2022/12/03 15:05:21;;;;;;;;;;;2.00;99.90;;;;;;2622468;46;19942;31
2022/12/03 15:08:03;;;;;;;;;;;2.00;99.90;;;;;;2702424;39;20242;31
2022/12/03 15:10:39;;;;;;;;;;;2.00;99.90;;;;;;2603596;54;19935;31
2022/12/03 15:16:23;;;;;;;;;;;1.90;99.90;;;;;;2603412;54;20808;31
2022/12/03 15:22:33;;;;;;;;;;;1.90;99.90;;;;;;2603889;54;20753;31
2022/12/03 15:25:11;;;;;;;;;;;1.90;99.90;;;;;;2622077;46;19943;31
2022/12/03 15:27:51;;;;;;;;;;;1.80;99.90;;;;;;2622292;46;19934;31
2022/12/03 15:30:26;;;;;;;;;;;1.80;99.90;;;;;;2603994;54;20021;31
2022/12/03 15:33:17;;;;;;;;;;;1.80;99.90;;;;;;2603607;54;20065;31
2022/12/03 15:36:02;;;;;;;;;;;1.80;99.90;;;;;;2603650;54;20020;31
2022/12/03 15:38:51;;;;;;;;;;;1.80;99.90;;;;;;2603377;54;20826;31
2022/12/03 15:41:28;;;;;;;;;;;1.80;99.90;;;;;;2773807;31;20424;31
2022/12/03 15:44:08;;;;;;;;;;;1.80;99.90;;;;;;2621983;46;20747;31
2022/12/03 15:46:43;;;;;;;;;;;1.90;99.90;;;;;;2622285;46;19960;31
2022/12/03 15:49:28;;;;;;;;;;;1.90;99.90;;;;;;2603805;54;20025;31
2022/12/03 15:52:01;;;;;;;;;;;1.90;99.90;;;;;;2773655;31;20344;31
2022/12/03 15:54:42;;;;;;;;;;;1.90;99.90;;;;;;2603362;54;20791;31
2022/12/03 15:57:16;;;;;;;;;;;1.90;99.90;;;;;;2603967;54;19969;31
2022/12/03 15:59:53;;;;;;;;;;;1.90;99.90;;;;;;2603379;54;20079;31
2022/12/03 16:02:32;;;;;;;;;;;1.90;99.90;;;;;;2603461;54;20819;31
2022/12/03 16:05:31;;;;;;;;;;;1.90;99.90;;;;;;2603436;54;20005;31
2022/12/03 16:08:08;;;;;;;;;;;1.90;99.90;;;;;;2603937;54;19950;31
2022/12/03 16:10:49;;;;;;;;;;;1.90;99.90;;;;;;2603585;54;20013;31
2022/12/03 16:16:18;;;;;;;;;;;1.90;99.90;;;;;;2603574;54;20795;31
2022/12/03 16:19:01;;;;;;;;;;;1.80;99.90;;;;;;2603641;54;20052;31
2022/12/03 16:21:37;;;;;;;;;;;1.80;99.90;;;;;;2622341;46;20837;31
2022/12/03 16:24:12;;;;;;;;;;;1.80;99.90;;;;;;2603518;54;20049;31
2022/12/03 16:26:52;;;;;;;;;;;1.90;99.90;;;;;;2603373;54;19941;31
2022/12/03 16:29:35;;;;;;;;;;;1.80;99.90;;;;;;2603427;54;19957;31
2022/12/03 16:32:12;;;;;;;;;;;1.90;99.90;;;;;;2603868;54;20722;31
2022/12/03 16:38:23;;;;;;;;;;;1.90;99.90;;;;;;2603586;54;19938;31
2022/12/03 16:44:06;;;;;;;;;;;1.80;99.90;;;;;;2603779;54;19935;31
2022/12/03 16:47:05;;;;;;;;;;;1.80;99.90;;;;;;2773541;31;20265;31
2022/12/03 16:50:22;;;;;;;;;;;1.80;99.90;;;;;;2603723;54;20744;31
2022/12/03 16:53:23;;;;;;;;;;;1.80;99.90;;;;;;2603493;54;19934;31